Time;durP1;ratioP1;P1;durP2;ratioP2;P2;SDS_P1;SDS_P2;PMS_P1;PMS_P2;Temp;Humidity;BMP_temperature;BMP_pressure;BME280_temperature;BME280_humidity;BME280_pressure;Samples;Min_cycle;Max_cycle;Signal;HPM_P1;HPM_P2
2021/12/21 00:01:34;;;;;;;3.78;2.53;;;18.00;54.20;;;;;;5003520;28;20034;-75
2021/12/21 00:03:59;;;;;;;8.25;2.78;;;18.00;54.30;;;;;;5004324;28;20030;-75
2021/12/21 00:06:25;;;;;;;4.25;2.63;;;18.00;54.30;;;;;;5005768;28;20026;-75
2021/12/21 00:08:50;;;;;;;4.15;2.30;;;17.90;54.20;;;;;;4987120;28;20069;-75
2021/12/21 00:11:16;;;;;;;5.55;2.33;;;17.90;54.20;;;;;;5003575;28;20493;-75
2021/12/21 00:16:30;;;;;;;5.07;3.08;;;17.90;54.30;;;;;;5004723;28;20030;-75
2021/12/21 00:21:40;;;;;;;5.82;2.67;;;17.90;54.20;;;;;;5003747;28;20117;-75
2021/12/21 00:24:18;;;;;;;3.78;2.30;;;17.90;54.20;;;;;;5004593;28;20030;-75
2021/12/21 00:26:44;;;;;;;4.28;2.67;;;17.90;54.30;;;;;;5004686;28;20524;-75
2021/12/21 00:29:09;;;;;;;3.40;2.35;;;17.90;54.20;;;;;;5005435;28;20026;-76
2021/12/21 00:31:36;;;;;;;5.32;2.80;;;17.90;54.10;;;;;;5006990;28;20097;-75
2021/12/21 00:34:03;;;;;;;5.20;2.95;;;17.90;54.10;;;;;;5005915;28;20030;-75
2021/12/21 00:36:29;;;;;;;4.75;2.33;;;17.80;54.10;;;;;;5006246;28;20501;-75
2021/12/21 00:38:56;;;;;;;5.43;2.40;;;17.90;54.10;;;;;;5006477;28;20033;-75
2021/12/21 00:41:21;;;;;;;4.40;2.88;;;17.90;54.20;;;;;;5005061;28;20124;-75
2021/12/21 00:43:48;;;;;;;3.63;2.70;;;17.90;54.10;;;;;;5007196;28;20444;-75
2021/12/21 00:46:14;;;;;;;2.75;2.30;;;17.90;54.10;;;;;;5007148;28;20034;-75
2021/12/21 00:48:48;;;;;;;6.40;2.40;;;17.90;54.10;;;;;;5027234;22;20125;-58
2021/12/21 00:51:13;;;;;;;4.10;2.28;;;17.80;54.00;;;;;;4983606;28;20042;-60
2021/12/21 00:53:40;;;;;;;6.82;2.67;;;17.90;54.00;;;;;;4961861;28;20045;-57
2021/12/21 00:56:05;;;;;;;5.65;2.78;;;17.90;53.90;;;;;;4983451;28;20031;-55
2021/12/21 00:58:31;;;;;;;7.22;2.63;;;17.90;54.00;;;;;;4980752;28;20026;-57
2021/12/21 01:00:57;;;;;;;3.58;2.50;;;17.90;53.90;;;;;;4982179;28;20052;-53
2021/12/21 01:03:22;;;;;;;4.30;2.63;;;17.90;53.90;;;;;;4972701;28;20058;-57
2021/12/21 01:06:03;;;;;;;4.55;2.88;;;17.90;54.00;;;;;;4991419;28;20541;-52
2021/12/21 01:08:31;;;;;;;3.78;2.75;;;17.80;53.90;;;;;;4985405;28;20501;-51
2021/12/21 01:16:25;;;;;;;5.18;2.97;;;17.90;53.70;;;;;;4966134;28;20573;-55
2021/12/21 01:19:04;;;;;;;2.95;2.35;;;17.90;53.70;;;;;;4969098;28;20114;-60
2021/12/21 01:21:36;;;;;;;3.40;2.50;;;17.90;53.80;;;;;;4968327;28;20039;-56
2021/12/21 01:26:58;;;;;;;5.07;2.30;;;17.80;53.80;;;;;;4987134;28;20034;-53
2021/12/21 01:29:37;;;;;;;3.95;2.50;;;17.80;53.70;;;;;;4985999;28;20038;-51
2021/12/21 01:32:12;;;;;;;4.97;2.70;;;17.80;53.70;;;;;;4981299;28;20470;-50
2021/12/21 01:34:50;;;;;;;5.53;2.47;;;17.80;53.80;;;;;;4976013;28;20022;-53
2021/12/21 01:37:24;;;;;;;3.30;2.47;;;17.80;53.90;;;;;;4983794;28;20429;-58
2021/12/21 01:42:33;;;;;;;5.63;2.53;;;17.80;53.80;;;;;;4983132;28;20129;-59
2021/12/21 01:50:27;;;;;;;4.90;2.80;;;17.80;53.80;;;;;;4984635;28;20108;-50
2021/12/21 01:52:52;;;;;;;4.95;2.72;;;17.70;53.80;;;;;;4982511;28;20109;-57
2021/12/21 01:55:18;;;;;;;4.90;2.25;;;17.70;53.70;;;;;;4984631;28;20042;-56
2021/12/21 01:57:43;;;;;;;5.38;2.88;;;17.80;53.80;;;;;;4983402;28;20706;-54
2021/12/21 02:00:10;;;;;;;6.05;2.88;;;17.70;53.70;;;;;;4985882;28;20031;-50
2021/12/21 02:02:35;;;;;;;5.10;2.78;;;17.70;53.80;;;;;;4982374;28;20401;-55
2021/12/21 02:05:01;;;;;;;3.90;2.55;;;17.70;53.80;;;;;;4985064;28;20026;-58
2021/12/21 02:07:27;;;;;;;4.78;2.80;;;17.70;53.70;;;;;;4981143;28;20081;-60
2021/12/21 02:09:52;;;;;;;4.07;2.40;;;17.70;53.70;;;;;;4985892;28;20513;-53
2021/12/21 02:12:19;;;;;;;3.08;2.20;;;17.70;53.70;;;;;;4981735;28;20038;-52
2021/12/21 02:14:52;;;;;;;4.63;2.33;;;17.60;53.80;;;;;;4984498;28;20027;-52
2021/12/21 02:20:05;;;;;;;4.28;2.60;;;17.60;53.90;;;;;;4964497;28;20047;-51
2021/12/21 02:22:33;;;;;;;4.82;2.70;;;17.60;53.80;;;;;;4963309;28;20696;-49
2021/12/21 02:25:17;;;;;;;3.58;2.50;;;17.60;53.80;;;;;;4984960;28;20034;-56
2021/12/21 02:27:55;;;;;;;4.00;2.00;;;17.60;53.90;;;;;;4980331;28;20038;-49
2021/12/21 02:30:20;;;;;;;5.07;2.35;;;17.50;53.90;;;;;;4983142;28;20026;-53
2021/12/21 02:32:46;;;;;;;3.03;2.33;;;17.60;53.90;;;;;;4979289;28;20188;-57
2021/12/21 02:35:11;;;;;;;4.78;2.38;;;17.50;53.90;;;;;;4985562;28;20445;-60
2021/12/21 02:37:37;;;;;;;4.65;2.22;;;17.50;53.90;;;;;;4982375;28;20080;-53
2021/12/21 02:40:03;;;;;;;4.68;2.03;;;17.50;54.00;;;;;;4985008;28;20030;-53
2021/12/21 02:42:29;;;;;;;4.10;2.15;;;17.60;54.20;;;;;;4979656;28;20114;-55
2021/12/21 02:44:54;;;;;;;5.80;2.60;;;17.60;54.10;;;;;;4984779;28;20117;-57
2021/12/21 02:47:20;;;;;;;4.05;1.95;;;17.60;54.10;;;;;;4978679;28;20113;-58
2021/12/21 02:49:45;;;;;;;4.25;1.95;;;17.60;54.30;;;;;;4984328;28;20045;-56
2021/12/21 02:52:11;;;;;;;3.72;2.20;;;17.60;54.30;;;;;;4982764;28;20038;-55
2021/12/21 02:54:36;;;;;;;4.47;2.13;;;17.70;54.30;;;;;;4985397;28;20027;-56
2021/12/21 02:57:02;;;;;;;4.57;2.25;;;17.70;54.20;;;;;;4981508;28;20408;-56
2021/12/21 02:59:27;;;;;;;4.13;2.10;;;17.70;54.10;;;;;;4982773;28;20037;-55
2021/12/21 03:01:53;;;;;;;4.28;2.90;;;17.80;54.10;;;;;;4981606;28;20066;-58
2021/12/21 03:04:19;;;;;;;2.70;2.00;;;17.80;54.10;;;;;;4984792;28;20029;-53
2021/12/21 03:09:32;;;;;;;4.78;2.22;;;17.80;54.10;;;;;;4984267;28;20019;-59
2021/12/21 03:11:57;;;;;;;3.88;2.10;;;17.90;54.10;;;;;;4980728;28;20065;-56
2021/12/21 03:14:26;;;;;;;5.35;2.35;;;17.90;54.00;;;;;;4984048;28;20088;-55
2021/12/21 03:16:52;;;;;;;4.35;2.33;;;17.90;54.00;;;;;;4981744;28;20062;-51
2021/12/21 03:19:17;;;;;;;3.25;2.10;;;17.90;53.90;;;;;;4983956;28;20117;-51
2021/12/21 03:21:43;;;;;;;3.53;2.00;;;18.00;53.90;;;;;;4979702;28;20110;-54
2021/12/21 03:24:09;;;;;;;3.85;2.60;;;18.00;53.80;;;;;;4982643;28;20019;-53
2021/12/21 03:26:34;;;;;;;3.08;1.95;;;18.00;53.80;;;;;;4984245;28;20030;-57
2021/12/21 03:29:00;;;;;;;5.20;2.00;;;18.00;53.80;;;;;;4978150;28;20049;-51
2021/12/21 03:31:25;;;;;;;3.55;2.28;;;18.00;53.80;;;;;;4982755;28;20038;-53
2021/12/21 03:33:51;;;;;;;3.80;2.35;;;18.00;53.70;;;;;;4983139;28;20062;-55
2021/12/21 03:36:17;;;;;;;3.83;2.30;;;18.00;53.60;;;;;;4983034;28;20092;-62
2021/12/21 03:38:49;;;;;;;3.83;1.90;;;17.90;53.70;;;;;;4981697;28;20057;-59
2021/12/21 03:41:17;;;;;;;3.33;1.77;;;17.90;53.50;;;;;;4983736;28;20030;-54
2021/12/21 03:43:42;;;;;;;4.88;2.28;;;18.00;53.50;;;;;;4985771;28;20180;-53
2021/12/21 03:46:10;;;;;;;2.92;1.70;;;18.00;53.60;;;;;;4982578;28;20538;-57
2021/12/21 03:48:37;;;;;;;3.95;2.28;;;17.90;53.50;;;;;;4975836;28;20497;-51
2021/12/21 03:51:03;;;;;;;3.92;2.17;;;17.90;53.50;;;;;;4982773;28;20042;-51
2021/12/21 03:53:29;;;;;;;5.30;2.15;;;17.90;53.40;;;;;;4980783;28;20027;-58
2021/12/21 03:56:09;;;;;;;4.32;2.40;;;17.90;53.40;;;;;;4981972;28;20030;-55
2021/12/21 03:58:35;;;;;;;3.38;1.92;;;17.90;53.40;;;;;;4977734;28;20023;-50
2021/12/21 04:01:00;;;;;;;3.55;2.05;;;17.90;53.30;;;;;;4983618;28;20045;-53
2021/12/21 04:03:26;;;;;;;4.15;2.05;;;17.90;53.30;;;;;;4978668;28;20413;-55
2021/12/21 04:05:52;;;;;;;3.85;1.77;;;17.90;53.20;;;;;;4981584;28;20181;-52
2021/12/21 04:08:19;;;;;;;3.45;1.90;;;17.90;53.30;;;;;;4979460;28;20071;-52
2021/12/21 04:10:44;;;;;;;2.92;1.80;;;17.90;53.20;;;;;;4981451;28;20619;-52
2021/12/21 04:13:10;;;;;;;2.53;1.80;;;17.90;53.30;;;;;;4980639;28;20030;-49
2021/12/21 04:15:43;;;;;;;4.32;2.10;;;17.90;53.20;;;;;;4982962;28;20033;-59
2021/12/21 04:18:12;;;;;;;5.32;1.80;;;17.90;53.20;;;;;;4979053;28;20041;-58
2021/12/21 04:20:38;;;;;;;4.40;2.00;;;17.90;53.20;;;;;;4981332;28;20037;-53
2021/12/21 04:23:04;;;;;;;3.13;1.95;;;17.80;53.20;;;;;;4977992;28;20057;-49
2021/12/21 04:25:29;;;;;;;2.20;1.58;;;17.90;53.30;;;;;;4982887;28;20489;-52
2021/12/21 04:27:55;;;;;;;3.30;1.90;;;17.80;53.20;;;;;;4978955;28;20038;-55
2021/12/21 04:30:20;;;;;;;4.90;1.90;;;17.80;53.20;;;;;;4982340;28;20030;-54
2021/12/21 04:32:46;;;;;;;3.10;1.50;;;17.80;53.10;;;;;;4976125;28;20049;-58
2021/12/21 04:35:12;;;;;;;3.05;1.63;;;17.90;53.10;;;;;;4982968;28;20031;-60
2021/12/21 04:37:41;;;;;;;3.92;1.92;;;17.90;53.10;;;;;;4980180;28;20014;-57
2021/12/21 04:40:13;;;;;;;3.88;1.67;;;17.90;53.20;;;;;;4980220;28;20109;-59
2021/12/21 04:42:38;;;;;;;2.05;1.60;;;17.90;53.10;;;;;;4978183;28;20050;-51
2021/12/21 04:45:04;;;;;;;2.38;1.80;;;17.90;53.00;;;;;;4982607;28;20037;-53
2021/12/21 04:47:30;;;;;;;2.35;1.48;;;17.90;53.00;;;;;;4979404;28;20037;-59
2021/12/21 04:49:55;;;;;;;4.53;1.98;;;17.90;52.90;;;;;;4981879;28;20057;-57
2021/12/21 04:52:21;;;;;;;4.13;1.98;;;17.90;52.80;;;;;;4977759;28;20685;-60
2021/12/21 04:54:46;;;;;;;3.08;1.90;;;17.90;52.80;;;;;;4964829;28;20027;-60
2021/12/21 04:57:12;;;;;;;3.17;1.90;;;17.90;52.80;;;;;;4980855;28;20129;-53
2021/12/21 04:59:37;;;;;;;5.10;2.13;;;17.90;52.60;;;;;;4982619;28;20018;-52
2021/12/21 05:02:03;;;;;;;2.88;1.70;;;17.90;52.60;;;;;;4978936;28;20522;-53
2021/12/21 05:04:28;;;;;;;3.38;1.90;;;17.90;52.60;;;;;;4981542;28;20042;-57
2021/12/21 05:06:54;;;;;;;2.97;1.60;;;18.00;52.50;;;;;;4979613;28;20057;-53
2021/12/21 05:09:26;;;;;;;3.15;1.90;;;18.00;52.40;;;;;;4980312;28;20528;-55
2021/12/21 05:11:53;;;;;;;4.47;1.75;;;18.00;52.40;;;;;;4978718;28;20505;-56
2021/12/21 05:14:19;;;;;;;3.30;1.67;;;17.90;52.40;;;;;;4980766;28;20038;-53
2021/12/21 05:16:44;;;;;;;2.97;1.63;;;17.90;52.40;;;;;;4979939;28;20093;-51
2021/12/21 05:19:10;;;;;;;3.15;1.70;;;17.90;52.30;;;;;;4980964;28;20045;-49
2021/12/21 05:21:35;;;;;;;3.30;1.77;;;17.90;52.40;;;;;;4981561;28;20030;-59
2021/12/21 05:24:01;;;;;;;3.00;1.88;;;17.90;52.30;;;;;;4979510;28;20117;-53
2021/12/21 05:26:26;;;;;;;2.55;1.75;;;17.90;52.30;;;;;;4964137;28;20035;-54
2021/12/21 05:28:52;;;;;;;2.35;1.58;;;17.90;52.30;;;;;;4977386;28;20030;-52
2021/12/21 05:31:18;;;;;;;2.72;1.83;;;17.90;52.30;;;;;;4981226;28;20050;-56
2021/12/21 05:33:45;;;;;;;4.85;2.17;;;17.90;52.30;;;;;;4977135;28;20026;-50
2021/12/21 05:36:10;;;;;;;2.95;1.88;;;17.90;52.30;;;;;;4981156;28;20053;-57
2021/12/21 05:38:36;;;;;;;2.13;1.30;;;17.90;52.30;;;;;;4977061;28;20208;-51
2021/12/21 05:41:04;;;;;;;2.40;1.50;;;17.90;52.30;;;;;;4980129;28;20038;-51
2021/12/21 05:43:29;;;;;;;3.05;1.80;;;17.90;52.30;;;;;;4976116;28;20138;-50
2021/12/21 05:45:55;;;;;;;4.65;1.60;;;17.90;52.30;;;;;;4980071;28;20062;-52
2021/12/21 05:48:21;;;;;;;3.85;2.08;;;17.80;52.40;;;;;;4976925;28;20097;-54
2021/12/21 05:50:46;;;;;;;2.97;1.90;;;17.80;52.40;;;;;;4963678;28;20226;-50
2021/12/21 05:53:12;;;;;;;3.63;1.73;;;17.80;52.40;;;;;;4979175;28;20037;-53
2021/12/21 05:55:37;;;;;;;3.38;1.65;;;17.80;52.40;;;;;;4985416;28;20030;-55
2021/12/21 05:58:03;;;;;;;2.08;1.48;;;17.80;52.70;;;;;;4979396;28;20046;-58
2021/12/21 06:00:30;;;;;;;3.28;1.60;;;17.80;52.50;;;;;;4985082;28;20034;-52
2021/12/21 06:02:55;;;;;;;2.20;1.60;;;17.80;52.40;;;;;;4980791;28;20030;-61
2021/12/21 06:05:21;;;;;;;3.35;1.80;;;17.80;52.30;;;;;;4983604;28;20517;-50
2021/12/21 06:07:49;;;;;;;2.92;1.50;;;17.90;52.40;;;;;;4979439;28;20081;-59
2021/12/21 06:10:21;;;;;;;4.00;1.67;;;17.80;52.50;;;;;;4983831;28;20081;-51
2021/12/21 06:26:15;;;;;;;2.35;1.55;;;17.80;52.70;;;;;;4982819;28;20030;-52
2021/12/21 06:28:41;;;;;;;3.05;1.52;;;17.80;52.80;;;;;;4982798;28;20027;-59
2021/12/21 06:31:07;;;;;;;3.65;1.80;;;17.80;52.80;;;;;;4984755;28;20034;-53
2021/12/21 06:33:32;;;;;;;5.47;2.53;;;17.80;52.80;;;;;;4984590;28;20134;-57
2021/12/21 06:35:58;;;;;;;2.33;2.05;;;17.80;52.90;;;;;;4985258;28;20694;-49
2021/12/21 06:38:23;;;;;;;8.55;2.33;;;17.80;52.90;;;;;;4982799;28;20084;-50
2021/12/21 06:40:49;;;;;;;7.00;1.95;;;17.80;53.00;;;;;;4983924;28;20026;-58
2021/12/21 06:43:16;;;;;;;6.53;2.47;;;17.80;53.00;;;;;;4984553;28;20035;-54
2021/12/21 06:51:33;;;;;;;7.05;4.22;;;17.80;53.00;;;;;;4981736;28;20037;-52
2021/12/21 06:53:58;;;;;;;8.20;3.65;;;17.80;53.20;;;;;;4982756;28;20133;-62
2021/12/21 06:56:25;;;;;;;8.07;3.80;;;17.80;53.30;;;;;;4984127;28;20455;-50
2021/12/21 06:58:53;;;;;;;9.80;4.00;;;17.80;53.30;;;;;;4983532;28;20034;-49
2021/12/21 07:01:19;;;;;;;6.90;3.80;;;17.80;53.30;;;;;;4983907;28;20151;-51
2021/12/21 07:03:45;;;;;;;6.85;3.92;;;17.80;53.30;;;;;;4965261;28;20513;-50
2021/12/21 07:06:10;;;;;;;7.88;4.43;;;17.80;53.20;;;;;;4966888;28;20463;-60
2021/12/21 07:08:45;;;;;;;8.73;4.55;;;17.80;53.20;;;;;;4982615;28;20030;-51
2021/12/21 07:11:36;;;;;;;11.48;5.47;;;17.80;53.30;;;;;;4984005;28;20321;-57
2021/12/21 07:19:31;;;;;;;10.95;6.05;;;17.80;53.30;;;;;;4983857;28;20096;-55
2021/12/21 07:21:56;;;;;;;11.55;6.35;;;17.80;53.20;;;;;;4966023;28;20023;-58
2021/12/21 07:24:22;;;;;;;14.13;6.45;;;17.80;53.00;;;;;;4982382;28;20061;-53
2021/12/21 07:26:48;;;;;;;16.85;6.70;;;17.80;52.80;;;;;;4983485;28;21727;-59
2021/12/21 07:29:13;;;;;;;12.35;6.65;;;17.80;52.90;;;;;;4981000;28;20085;-51
2021/12/21 07:31:39;;;;;;;12.27;6.15;;;17.80;52.70;;;;;;4982577;28;20645;-58
2021/12/21 07:34:04;;;;;;;9.35;5.63;;;17.80;52.80;;;;;;4981908;28;20398;-51
2021/12/21 07:36:31;;;;;;;13.27;5.82;;;17.80;52.50;;;;;;4985346;28;20146;-60
2021/12/21 07:38:58;;;;;;;11.90;6.03;;;17.80;52.40;;;;;;4983561;28;20038;-54
2021/12/21 07:41:23;;;;;;;14.45;5.75;;;17.80;52.20;;;;;;4980593;28;20035;-61
2021/12/21 07:43:49;;;;;;;9.65;5.80;;;17.80;52.10;;;;;;4981397;28;20022;-56
2021/12/21 07:46:14;;;;;;;10.85;5.13;;;17.80;52.60;;;;;;4982787;28;20117;-59
2021/12/21 07:48:40;;;;;;;9.90;5.10;;;17.80;51.90;;;;;;4983158;28;20053;-51
2021/12/21 07:51:07;;;;;;;9.00;4.70;;;17.70;52.00;;;;;;4980979;28;20066;-57
2021/12/21 07:53:33;;;;;;;51.35;23.38;;;17.70;52.50;;;;;;4983579;28;20470;-49
2021/12/21 07:56:02;;;;;;;78.82;35.03;;;17.70;53.20;;;;;;4982292;28;20516;-49
2021/12/21 07:58:29;;;;;;;78.15;36.42;;;17.70;53.20;;;;;;4981663;28;20654;-50
2021/12/21 08:00:58;;;;;;;69.40;35.53;;;17.70;53.80;;;;;;4982862;28;20037;-59
2021/12/21 08:03:23;;;;;;;77.60;35.10;;;17.60;53.00;;;;;;4980907;28;20022;-50
2021/12/21 08:05:52;;;;;;;70.30;34.28;;;17.60;52.70;;;;;;4981894;28;20037;-56
2021/12/21 08:08:21;;;;;;;67.38;30.83;;;17.60;52.60;;;;;;4983332;28;20118;-50
2021/12/21 08:11:10;;;;;;;62.65;30.70;;;17.60;52.60;;;;;;4981602;28;20053;-56
2021/12/21 08:13:37;;;;;;;57.05;28.63;;;17.60;52.80;;;;;;4982870;28;20097;-48
2021/12/21 08:16:02;;;;;;;57.53;27.50;;;17.60;52.70;;;;;;4980686;28;20030;-51
2021/12/21 08:18:28;;;;;;;46.28;22.52;;;17.60;52.70;;;;;;4980561;28;20042;-50
2021/12/21 08:20:53;;;;;;;47.85;22.42;;;17.60;52.80;;;;;;4981599;28;20520;-51
2021/12/21 08:23:19;;;;;;;42.88;21.15;;;17.60;52.90;;;;;;4983029;28;20034;-56
2021/12/21 08:25:44;;;;;;;45.92;21.92;;;17.60;53.00;;;;;;4981358;28;20712;-48
2021/12/21 08:28:10;;;;;;;47.10;20.00;;;17.60;53.10;;;;;;4982207;28;20027;-50
2021/12/21 08:30:36;;;;;;;41.40;19.58;;;17.60;53.30;;;;;;4981611;28;20117;-53
2021/12/21 08:33:01;;;;;;;43.63;20.15;;;17.60;53.40;;;;;;4982592;28;20133;-57
2021/12/21 08:35:27;;;;;;;45.65;20.10;;;17.60;53.50;;;;;;4983063;28;20057;-48
2021/12/21 08:37:59;;;;;;;42.25;18.52;;;17.60;53.60;;;;;;4983044;28;20493;-54
2021/12/21 08:40:25;;;;;;;41.63;18.23;;;17.60;53.70;;;;;;4980804;28;20031;-49
2021/12/21 08:42:51;;;;;;;36.78;17.02;;;17.60;53.70;;;;;;4982538;28;20026;-57
2021/12/21 08:45:17;;;;;;;31.48;15.95;;;17.60;53.70;;;;;;4982399;28;20046;-54
2021/12/21 08:47:42;;;;;;;37.53;16.33;;;17.70;53.70;;;;;;4978598;28;20422;-55
2021/12/21 08:50:10;;;;;;;40.85;16.85;;;17.70;53.70;;;;;;4982778;28;20039;-62
2021/12/21 08:52:36;;;;;;;39.95;16.70;;;17.70;53.70;;;;;;4982994;28;20066;-53
2021/12/21 08:55:07;;;;;;;36.80;15.65;;;17.70;53.90;;;;;;4983274;28;20027;-55
2021/12/21 08:57:33;;;;;;;37.42;16.25;;;17.80;54.00;;;;;;4978832;28;20030;-51
2021/12/21 08:59:58;;;;;;;38.55;15.95;;;17.80;53.90;;;;;;4978332;28;20038;-62
2021/12/21 09:02:24;;;;;;;31.02;14.32;;;17.80;54.10;;;;;;4982095;28;20653;-50
2021/12/21 09:04:49;;;;;;;37.20;14.27;;;17.80;54.10;;;;;;4984117;28;20061;-51
2021/12/21 09:07:15;;;;;;;29.27;14.07;;;17.80;54.30;;;;;;4986104;28;20029;-52
2021/12/21 09:09:40;;;;;;;28.90;12.63;;;17.90;54.40;;;;;;4984902;28;20509;-48
2021/12/21 09:12:07;;;;;;;32.45;11.88;;;17.90;54.70;;;;;;4982434;28;20129;-53
2021/12/21 09:14:33;;;;;;;33.92;12.70;;;17.90;54.60;;;;;;4987090;28;20076;-51
2021/12/21 09:16:59;;;;;;;29.77;12.35;;;17.90;54.50;;;;;;4980387;28;20081;-50
2021/12/21 09:19:25;;;;;;;21.08;10.00;;;17.90;54.50;;;;;;4980617;28;20054;-51
2021/12/21 09:21:51;;;;;;;20.50;11.65;;;17.90;54.60;;;;;;4982244;28;20030;-50
2021/12/21 09:24:16;;;;;;;23.17;10.55;;;17.90;54.70;;;;;;4982404;28;20054;-54
2021/12/21 09:26:42;;;;;;;23.38;10.40;;;17.90;54.80;;;;;;4984978;28;20034;-52
2021/12/21 09:29:07;;;;;;;21.23;9.68;;;17.90;54.80;;;;;;4982526;28;20030;-51
2021/12/21 09:31:33;;;;;;;18.63;7.60;;;17.90;54.90;;;;;;4985135;28;20038;-52
2021/12/21 09:33:58;;;;;;;17.88;7.70;;;17.80;54.80;;;;;;5016011;22;20132;-52
2021/12/21 09:36:26;;;;;;;21.20;8.30;;;17.80;54.90;;;;;;4999818;28;20030;-54
2021/12/21 09:38:51;;;;;;;14.52;7.13;;;17.80;54.90;;;;;;5004817;28;20018;-58
2021/12/21 09:41:18;;;;;;;13.27;7.25;;;17.80;55.00;;;;;;5004288;28;20370;-56
2021/12/21 09:43:43;;;;;;;14.20;6.97;;;17.80;55.10;;;;;;5019597;28;20038;-54
2021/12/21 09:46:09;;;;;;;14.70;7.40;;;17.80;55.10;;;;;;4997827;28;20207;-53
2021/12/21 09:48:35;;;;;;;15.75;7.22;;;17.70;55.20;;;;;;4997965;28;20045;-57
2021/12/21 09:51:01;;;;;;;13.00;6.68;;;17.70;55.20;;;;;;5005486;28;20045;-53
2021/12/21 09:53:26;;;;;;;12.57;6.90;;;17.70;55.20;;;;;;5011711;28;20364;-53
2021/12/21 09:55:52;;;;;;;12.55;6.43;;;17.70;55.20;;;;;;5000399;28;20124;-55
2021/12/21 09:58:20;;;;;;;15.05;6.72;;;17.70;55.20;;;;;;4998088;28;20535;-58
2021/12/21 10:00:46;;;;;;;16.08;7.28;;;17.70;55.20;;;;;;5000026;28;20054;-60
2021/12/21 10:03:12;;;;;;;12.10;6.50;;;17.70;55.20;;;;;;5002404;28;20512;-56
2021/12/21 10:05:39;;;;;;;14.95;6.63;;;17.70;55.40;;;;;;5003080;28;20034;-53
2021/12/21 10:08:09;;;;;;;15.23;5.93;;;17.70;55.30;;;;;;5004144;28;20038;-49
2021/12/21 10:10:36;;;;;;;12.77;5.55;;;17.70;55.20;;;;;;5004271;28;20065;-55
2021/12/21 10:13:16;;;;;;;19.48;5.82;;;17.70;55.20;;;;;;5005328;28;20160;-56
2021/12/21 10:15:52;;;;;;;15.30;6.85;;;17.70;55.10;;;;;;4999346;28;20104;-60
2021/12/21 10:18:29;;;;;;;14.65;6.50;;;17.80;55.20;;;;;;5003319;28;20061;-51
2021/12/21 10:20:56;;;;;;;10.50;5.47;;;17.80;55.30;;;;;;5005663;28;20037;-51
2021/12/21 10:23:35;;;;;;;11.95;5.60;;;17.80;55.30;;;;;;5004155;28;20037;-53
2021/12/21 10:26:10;;;;;;;11.45;5.57;;;17.80;55.40;;;;;;5004973;28;20053;-55
2021/12/21 10:28:39;;;;;;;10.63;5.15;;;17.80;55.50;;;;;;5003683;28;20449;-54
2021/12/21 10:31:09;;;;;;;8.48;5.32;;;17.80;55.50;;;;;;5003987;28;20061;-58
2021/12/21 10:33:35;;;;;;;11.43;4.75;;;17.80;55.50;;;;;;5001939;28;20045;-50
2021/12/21 10:36:02;;;;;;;10.82;4.60;;;17.80;55.50;;;;;;5003809;28;20561;-50
2021/12/21 10:38:31;;;;;;;11.13;5.03;;;17.80;55.50;;;;;;4983478;28;20595;-56
2021/12/21 10:41:05;;;;;;;11.32;4.78;;;17.80;55.40;;;;;;5003836;28;20034;-50
2021/12/21 10:43:30;;;;;;;9.35;4.45;;;17.70;55.30;;;;;;5004338;28;20432;-59
2021/12/21 10:45:56;;;;;;;10.15;5.03;;;17.80;55.20;;;;;;5004080;28;20022;-53
2021/12/21 10:48:22;;;;;;;7.38;4.45;;;17.80;55.10;;;;;;5004743;28;20022;-59
2021/12/21 10:50:48;;;;;;;12.15;4.38;;;17.80;55.00;;;;;;5002535;28;20060;-52
2021/12/21 10:53:23;;;;;;;8.60;3.60;;;17.80;54.90;;;;;;5003910;28;20497;-58
2021/12/21 10:55:58;;;;;;;11.07;4.70;;;17.80;54.70;;;;;;5000890;28;20026;-59
2021/12/21 10:58:26;;;;;;;9.60;4.25;;;17.80;54.50;;;;;;5002848;28;20065;-59
2021/12/21 11:00:54;;;;;;;10.65;4.30;;;17.80;54.20;;;;;;5005023;28;20041;-48
2021/12/21 11:03:38;;;;;;;6.82;4.00;;;17.80;53.90;;;;;;5004441;28;20257;-49
2021/12/21 11:06:10;;;;;;;7.35;4.57;;;17.80;53.80;;;;;;5003821;28;20037;-59
2021/12/21 11:08:37;;;;;;;7.90;4.03;;;17.80;53.70;;;;;;5004300;28;20429;-52
2021/12/21 11:11:03;;;;;;;8.30;3.95;;;17.80;53.50;;;;;;5002198;28;20050;-52
2021/12/21 11:13:28;;;;;;;6.85;3.58;;;17.80;53.60;;;;;;5005068;28;20056;-58
2021/12/21 11:15:56;;;;;;;6.60;3.78;;;17.90;53.60;;;;;;5005140;28;20041;-56
2021/12/21 11:18:22;;;;;;;6.78;3.67;;;17.80;53.70;;;;;;5004215;28;20522;-57
2021/12/21 11:20:50;;;;;;;6.57;3.97;;;17.80;53.60;;;;;;4998292;28;20033;-60
2021/12/21 11:23:18;;;;;;;6.18;3.50;;;17.90;53.70;;;;;;5003625;28;20037;-58
2021/12/21 11:25:46;;;;;;;6.78;2.97;;;17.90;53.60;;;;;;4994081;28;20555;-55
2021/12/21 11:28:14;;;;;;;5.57;3.15;;;17.80;53.50;;;;;;5004263;28;20038;-55
2021/12/21 11:30:39;;;;;;;5.95;3.55;;;17.80;53.50;;;;;;5004662;28;20436;-55
2021/12/21 11:33:10;;;;;;;6.07;3.78;;;17.80;53.50;;;;;;5003577;28;20056;-60
2021/12/21 11:38:06;;;;;;;5.57;3.53;;;17.80;53.40;;;;;;4995984;28;20104;-55
2021/12/21 11:40:39;;;;;;;8.15;4.13;;;17.80;53.50;;;;;;5016805;28;20033;-56
2021/12/21 11:43:27;;;;;;;6.63;3.30;;;17.80;53.50;;;;;;5000219;28;20034;-50
2021/12/21 11:45:56;;;;;;;6.03;4.03;;;17.80;53.40;;;;;;4987441;28;20033;-48
2021/12/21 11:48:26;;;;;;;8.70;3.88;;;17.80;53.30;;;;;;5002276;28;20431;-56
2021/12/21 11:50:52;;;;;;;7.15;3.75;;;17.80;53.30;;;;;;5003274;28;20030;-58
2021/12/21 11:53:18;;;;;;;7.63;3.65;;;17.80;53.30;;;;;;5002433;28;20764;-55
2021/12/21 11:55:48;;;;;;;6.78;3.83;;;17.80;53.20;;;;;;5003622;28;20033;-55
2021/12/21 11:58:27;;;;;;;7.95;3.65;;;17.80;53.20;;;;;;4999731;28;20404;-53
2021/12/21 12:00:54;;;;;;;12.52;5.97;;;17.70;53.20;;;;;;5001634;28;20113;-56
2021/12/21 12:03:22;;;;;;;11.32;5.18;;;17.70;53.70;;;;;;5002541;28;20571;-54
2021/12/21 12:05:58;;;;;;;12.52;5.32;;;17.70;53.70;;;;;;5003550;28;20114;-52
2021/12/21 12:08:46;;;;;;;12.52;5.85;;;17.70;53.70;;;;;;5003222;28;20046;-51
2021/12/21 12:11:35;;;;;;;8.60;5.45;;;17.70;53.70;;;;;;4999513;28;20065;-55
2021/12/21 12:14:04;;;;;;;13.05;5.47;;;17.70;53.70;;;;;;5001668;28;20060;-55
2021/12/21 12:16:39;;;;;;;11.85;5.68;;;17.60;53.80;;;;;;5002107;28;20041;-57
2021/12/21 12:19:13;;;;;;;9.75;5.00;;;17.60;53.70;;;;;;4991960;28;20034;-55
2021/12/21 12:21:39;;;;;;;12.90;5.55;;;17.60;53.80;;;;;;4998358;28;20116;-55
2021/12/21 12:24:05;;;;;;;8.50;5.00;;;17.60;53.80;;;;;;5002331;28;20077;-56
2021/12/21 12:26:36;;;;;;;9.45;5.10;;;17.60;53.70;;;;;;5001542;28;20034;-52
2021/12/21 12:29:11;;;;;;;10.45;4.97;;;17.60;53.60;;;;;;4991074;28;20056;-54
2021/12/21 12:31:39;;;;;;;8.23;5.20;;;17.50;53.70;;;;;;5002109;28;20042;-54
2021/12/21 12:34:04;;;;;;;9.90;5.57;;;17.50;53.70;;;;;;4999020;28;20038;-57
2021/12/21 12:36:47;;;;;;;17.52;8.98;;;17.50;54.00;;;;;;5001790;28;20737;-54
2021/12/21 12:39:25;;;;;;;15.20;7.68;;;17.50;55.00;;;;;;4999279;28;20099;-53
2021/12/21 12:41:51;;;;;;;16.63;7.15;;;17.50;55.00;;;;;;4999936;28;20672;-56
2021/12/21 12:44:21;;;;;;;12.00;6.30;;;17.50;55.00;;;;;;5002805;28;20026;-52
2021/12/21 12:46:52;;;;;;;13.23;6.20;;;17.50;55.00;;;;;;5002101;28;20038;-51
2021/12/21 12:49:23;;;;;;;16.77;6.95;;;17.50;55.20;;;;;;5001943;28;20056;-56
2021/12/21 12:51:48;;;;;;;12.77;6.22;;;17.50;55.30;;;;;;5001801;28;20045;-57
2021/12/21 12:54:18;;;;;;;13.02;6.38;;;17.40;55.40;;;;;;5003148;28;20030;-54
2021/12/21 12:56:43;;;;;;;13.07;5.72;;;17.40;55.50;;;;;;5002502;28;20042;-51
2021/12/21 12:59:09;;;;;;;15.73;5.72;;;17.40;55.60;;;;;;5000007;28;20032;-56
2021/12/21 13:01:48;;;;;;;10.30;5.53;;;17.40;55.70;;;;;;5004870;28;20125;-57
2021/12/21 13:04:14;;;;;;;12.43;5.85;;;17.50;55.70;;;;;;5005925;28;20093;-55
2021/12/21 13:06:41;;;;;;;11.52;5.63;;;17.40;55.70;;;;;;5006783;28;20033;-55
2021/12/21 13:09:18;;;;;;;12.27;6.05;;;17.50;55.80;;;;;;5006166;28;20069;-53
2021/12/21 13:11:43;;;;;;;13.80;5.32;;;17.50;55.80;;;;;;5006033;28;20041;-54
2021/12/21 13:14:10;;;;;;;9.60;5.28;;;17.50;55.80;;;;;;5006551;28;20030;-56
2021/12/21 13:16:36;;;;;;;11.15;5.32;;;17.50;56.50;;;;;;5006744;28;20125;-56
2021/12/21 13:19:06;;;;;;;9.02;5.07;;;17.50;55.90;;;;;;5005973;28;20173;-53
2021/12/21 13:21:53;;;;;;;8.68;5.28;;;17.50;55.80;;;;;;5004971;28;20183;-54
2021/12/21 13:24:20;;;;;;;9.57;5.55;;;17.50;55.80;;;;;;5006487;28;20452;-55
2021/12/21 13:26:51;;;;;;;9.00;4.32;;;17.50;55.80;;;;;;5006654;28;20037;-49
2021/12/21 13:29:21;;;;;;;10.00;4.63;;;17.50;55.90;;;;;;5001986;28;20084;-57
2021/12/21 13:31:51;;;;;;;9.55;4.30;;;17.50;55.80;;;;;;5006938;28;20488;-57
2021/12/21 13:34:16;;;;;;;8.63;4.47;;;17.50;55.80;;;;;;5004931;28;20046;-56
2021/12/21 13:36:47;;;;;;;7.60;4.15;;;17.50;55.80;;;;;;5003180;28;20030;-56
2021/12/21 13:39:26;;;;;;;6.95;4.05;;;17.50;55.80;;;;;;5005991;28;20053;-57
2021/12/21 13:41:52;;;;;;;7.22;3.88;;;17.50;55.90;;;;;;5006334;28;20057;-55